sensor_id;sensor_type;location;lat;lon;timestamp;P1;durP1;ratioP1;P2;durP2;ratioP2
46765;SDS011;32527;51.986;5.842;2023-01-24T00:01:43;19.65;;;11.15;;
46765;SDS011;32527;51.986;5.842;2023-01-24T00:04:09;17.58;;;10.95;;
46765;SDS011;32527;51.986;5.842;2023-01-24T00:06:35;23.35;;;12.55;;
46765;SDS011;32527;51.986;5.842;2023-01-24T00:09:01;23.58;;;13.35;;
46765;SDS011;32527;51.986;5.842;2023-01-24T00:11:27;22.23;;;12.10;;
46765;SDS011;32527;51.986;5.842;2023-01-24T00:13:53;23.17;;;12.85;;
46765;SDS011;32527;51.986;5.842;2023-01-24T00:16:19;23.17;;;12.77;;
46765;SDS011;32527;51.986;5.842;2023-01-24T00:18:46;21.83;;;11.82;;
46765;SDS011;32527;51.986;5.842;2023-01-24T00:21:13;20.00;;;11.73;;
46765;SDS011;32527;51.986;5.842;2023-01-24T00:23:44;19.38;;;10.88;;
46765;SDS011;32527;51.986;5.842;2023-01-24T00:26:12;21.92;;;12.15;;
46765;SDS011;32527;51.986;5.842;2023-01-24T00:28:41;18.45;;;10.75;;
46765;SDS011;32527;51.986;5.842;2023-01-24T00:31:07;19.98;;;11.60;;
46765;SDS011;32527;51.986;5.842;2023-01-24T00:33:33;18.27;;;9.32;;
46765;SDS011;32527;51.986;5.842;2023-01-24T00:36:00;16.45;;;9.93;;
46765;SDS011;32527;51.986;5.842;2023-01-24T00:38:27;17.27;;;9.50;;
46765;SDS011;32527;51.986;5.842;2023-01-24T00:40:55;18.10;;;9.85;;
46765;SDS011;32527;51.986;5.842;2023-01-24T00:43:21;16.42;;;9.38;;
46765;SDS011;32527;51.986;5.842;2023-01-24T00:45:47;16.92;;;9.85;;
46765;SDS011;32527;51.986;5.842;2023-01-24T00:48:13;15.82;;;10.05;;
46765;SDS011;32527;51.986;5.842;2023-01-24T00:50:39;18.45;;;9.98;;
46765;SDS011;32527;51.986;5.842;2023-01-24T00:53:05;19.60;;;9.45;;
46765;SDS011;32527;51.986;5.842;2023-01-24T00:55:31;16.60;;;9.07;;
46765;SDS011;32527;51.986;5.842;2023-01-24T00:57:58;17.17;;;9.00;;
46765;SDS011;32527;51.986;5.842;2023-01-24T01:00:25;14.82;;;9.52;;
46765;SDS011;32527;51.986;5.842;2023-01-24T01:02:51;16.08;;;9.38;;
46765;SDS011;32527;51.986;5.842;2023-01-24T01:05:17;18.13;;;10.32;;
46765;SDS011;32527;51.986;5.842;2023-01-24T01:07:43;16.45;;;8.93;;
46765;SDS011;32527;51.986;5.842;2023-01-24T01:10:09;15.68;;;10.15;;
46765;SDS011;32527;51.986;5.842;2023-01-24T01:12:35;17.33;;;9.25;;
46765;SDS011;32527;51.986;5.842;2023-01-24T01:15:02;17.85;;;10.38;;
46765;SDS011;32527;51.986;5.842;2023-01-24T01:17:28;17.02;;;9.27;;
46765;SDS011;32527;51.986;5.842;2023-01-24T01:19:54;20.17;;;10.45;;
46765;SDS011;32527;51.986;5.842;2023-01-24T01:22:20;16.50;;;9.63;;
46765;SDS011;32527;51.986;5.842;2023-01-24T01:24:46;16.38;;;9.63;;
46765;SDS011;32527;51.986;5.842;2023-01-24T01:27:12;16.30;;;9.95;;
46765;SDS011;32527;51.986;5.842;2023-01-24T01:29:38;20.45;;;10.98;;
46765;SDS011;32527;51.986;5.842;2023-01-24T01:32:04;20.58;;;11.23;;
46765;SDS011;32527;51.986;5.842;2023-01-24T01:34:30;20.45;;;10.40;;
46765;SDS011;32527;51.986;5.842;2023-01-24T01:36:56;21.45;;;10.65;;
46765;SDS011;32527;51.986;5.842;2023-01-24T01:39:22;21.38;;;10.65;;
46765;SDS011;32527;51.986;5.842;2023-01-24T01:41:48;20.50;;;11.60;;
46765;SDS011;32527;51.986;5.842;2023-01-24T01:44:27;20.17;;;11.23;;
46765;SDS011;32527;51.986;5.842;2023-01-24T01:47:14;19.08;;;11.57;;
46765;SDS011;32527;51.986;5.842;2023-01-24T01:50:00;20.10;;;10.55;;
46765;SDS011;32527;51.986;5.842;2023-01-24T01:52:40;18.50;;;9.93;;
46765;SDS011;32527;51.986;5.842;2023-01-24T01:55:17;19.73;;;11.23;;
46765;SDS011;32527;51.986;5.842;2023-01-24T01:57:45;21.20;;;11.70;;
46765;SDS011;32527;51.986;5.842;2023-01-24T02:00:15;21.70;;;11.40;;
46765;SDS011;32527;51.986;5.842;2023-01-24T02:02:50;17.77;;;10.80;;
46765;SDS011;32527;51.986;5.842;2023-01-24T02:08:06;23.25;;;12.57;;
46765;SDS011;32527;51.986;5.842;2023-01-24T02:10:36;24.00;;;11.70;;
46765;SDS011;32527;51.986;5.842;2023-01-24T02:13:22;21.48;;;10.30;;
46765;SDS011;32527;51.986;5.842;2023-01-24T02:15:49;22.33;;;10.80;;
46765;SDS011;32527;51.986;5.842;2023-01-24T02:18:29;20.73;;;11.23;;
46765;SDS011;32527;51.986;5.842;2023-01-24T02:20:56;20.17;;;11.95;;
46765;SDS011;32527;51.986;5.842;2023-01-24T02:26:23;17.95;;;11.20;;
46765;SDS011;32527;51.986;5.842;2023-01-24T02:28:58;18.70;;;10.88;;
46765;SDS011;32527;51.986;5.842;2023-01-24T02:31:28;23.42;;;11.90;;
46765;SDS011;32527;51.986;5.842;2023-01-24T02:33:54;20.92;;;12.07;;
46765;SDS011;32527;51.986;5.842;2023-01-24T02:36:22;24.10;;;11.68;;
46765;SDS011;32527;51.986;5.842;2023-01-24T02:41:25;24.80;;;13.48;;
46765;SDS011;32527;51.986;5.842;2023-01-24T02:43:55;24.77;;;13.23;;
46765;SDS011;32527;51.986;5.842;2023-01-24T02:46:28;21.05;;;11.93;;
46765;SDS011;32527;51.986;5.842;2023-01-24T02:48:55;21.48;;;12.10;;
46765;SDS011;32527;51.986;5.842;2023-01-24T02:51:21;20.90;;;11.57;;
46765;SDS011;32527;51.986;5.842;2023-01-24T02:54:05;23.35;;;13.07;;
46765;SDS011;32527;51.986;5.842;2023-01-24T02:56:32;21.63;;;11.45;;
46765;SDS011;32527;51.986;5.842;2023-01-24T02:59:16;23.52;;;12.05;;
46765;SDS011;32527;51.986;5.842;2023-01-24T03:01:45;23.73;;;12.23;;
46765;SDS011;32527;51.986;5.842;2023-01-24T03:04:12;24.25;;;12.38;;
46765;SDS011;32527;51.986;5.842;2023-01-24T03:06:40;24.45;;;12.52;;
46765;SDS011;32527;51.986;5.842;2023-01-24T03:09:06;27.70;;;14.18;;
46765;SDS011;32527;51.986;5.842;2023-01-24T03:11:45;24.92;;;14.25;;
46765;SDS011;32527;51.986;5.842;2023-01-24T03:14:13;27.02;;;13.00;;
46765;SDS011;32527;51.986;5.842;2023-01-24T03:16:58;26.02;;;13.90;;
46765;SDS011;32527;51.986;5.842;2023-01-24T03:19:43;24.45;;;13.27;;
46765;SDS011;32527;51.986;5.842;2023-01-24T03:22:28;22.45;;;12.65;;
46765;SDS011;32527;51.986;5.842;2023-01-24T03:25:12;26.70;;;12.57;;
46765;SDS011;32527;51.986;5.842;2023-01-24T03:28:01;21.20;;;12.57;;
46765;SDS011;32527;51.986;5.842;2023-01-24T03:30:47;23.92;;;13.40;;
46765;SDS011;32527;51.986;5.842;2023-01-24T03:33:33;26.02;;;13.63;;
46765;SDS011;32527;51.986;5.842;2023-01-24T03:36:17;22.88;;;14.27;;
46765;SDS011;32527;51.986;5.842;2023-01-24T03:38:52;26.05;;;14.13;;
46765;SDS011;32527;51.986;5.842;2023-01-24T03:41:36;25.73;;;14.93;;
46765;SDS011;32527;51.986;5.842;2023-01-24T03:44:03;29.38;;;15.82;;
46765;SDS011;32527;51.986;5.842;2023-01-24T03:46:29;27.73;;;15.32;;
46765;SDS011;32527;51.986;5.842;2023-01-24T03:48:56;27.08;;;14.32;;
46765;SDS011;32527;51.986;5.842;2023-01-24T03:51:30;27.92;;;15.50;;
46765;SDS011;32527;51.986;5.842;2023-01-24T03:54:14;26.05;;;15.02;;
46765;SDS011;32527;51.986;5.842;2023-01-24T03:56:50;28.20;;;15.30;;
46765;SDS011;32527;51.986;5.842;2023-01-24T03:59:18;31.38;;;16.10;;
46765;SDS011;32527;51.986;5.842;2023-01-24T04:01:44;26.60;;;15.50;;
46765;SDS011;32527;51.986;5.842;2023-01-24T04:04:18;29.42;;;16.98;;
46765;SDS011;32527;51.986;5.842;2023-01-24T04:06:44;31.05;;;16.60;;
46765;SDS011;32527;51.986;5.842;2023-01-24T04:09:12;33.85;;;16.77;;
46765;SDS011;32527;51.986;5.842;2023-01-24T04:11:40;29.23;;;14.88;;
46765;SDS011;32527;51.986;5.842;2023-01-24T04:14:11;29.70;;;15.55;;
46765;SDS011;32527;51.986;5.842;2023-01-24T04:16:48;31.17;;;17.95;;
46765;SDS011;32527;51.986;5.842;2023-01-24T04:19:19;31.33;;;17.05;;
46765;SDS011;32527;51.986;5.842;2023-01-24T04:21:45;32.97;;;16.58;;
46765;SDS011;32527;51.986;5.842;2023-01-24T04:24:11;28.00;;;15.95;;
46765;SDS011;32527;51.986;5.842;2023-01-24T04:26:40;30.38;;;16.65;;
46765;SDS011;32527;51.986;5.842;2023-01-24T04:29:11;30.17;;;16.48;;
46765;SDS011;32527;51.986;5.842;2023-01-24T04:31:36;32.17;;;16.85;;
46765;SDS011;32527;51.986;5.842;2023-01-24T04:34:24;34.88;;;18.17;;
46765;SDS011;32527;51.986;5.842;2023-01-24T04:36:50;31.15;;;16.75;;
46765;SDS011;32527;51.986;5.842;2023-01-24T04:39:16;30.13;;;16.80;;
46765;SDS011;32527;51.986;5.842;2023-01-24T04:42:05;32.50;;;17.35;;
46765;SDS011;32527;51.986;5.842;2023-01-24T04:44:32;29.10;;;15.82;;
46765;SDS011;32527;51.986;5.842;2023-01-24T04:46:59;33.88;;;17.90;;
46765;SDS011;32527;51.986;5.842;2023-01-24T04:49:25;28.40;;;16.92;;
46765;SDS011;32527;51.986;5.842;2023-01-24T04:51:51;33.15;;;17.15;;
46765;SDS011;32527;51.986;5.842;2023-01-24T04:54:22;34.28;;;16.80;;
46765;SDS011;32527;51.986;5.842;2023-01-24T04:56:48;30.77;;;16.23;;
46765;SDS011;32527;51.986;5.842;2023-01-24T04:59:15;28.38;;;16.55;;
46765;SDS011;32527;51.986;5.842;2023-01-24T05:01:42;30.48;;;16.65;;
46765;SDS011;32527;51.986;5.842;2023-01-24T05:04:20;31.83;;;17.27;;
46765;SDS011;32527;51.986;5.842;2023-01-24T05:06:46;31.60;;;16.10;;
46765;SDS011;32527;51.986;5.842;2023-01-24T05:09:12;31.85;;;17.60;;
46765;SDS011;32527;51.986;5.842;2023-01-24T05:11:47;31.95;;;17.50;;
46765;SDS011;32527;51.986;5.842;2023-01-24T05:14:13;33.05;;;16.85;;
46765;SDS011;32527;51.986;5.842;2023-01-24T05:16:40;32.30;;;18.08;;
46765;SDS011;32527;51.986;5.842;2023-01-24T05:19:06;32.92;;;17.63;;
46765;SDS011;32527;51.986;5.842;2023-01-24T05:21:34;34.00;;;19.02;;
46765;SDS011;32527;51.986;5.842;2023-01-24T05:24:02;32.63;;;17.90;;
46765;SDS011;32527;51.986;5.842;2023-01-24T05:26:28;29.75;;;17.20;;
46765;SDS011;32527;51.986;5.842;2023-01-24T05:28:56;32.08;;;17.23;;
46765;SDS011;32527;51.986;5.842;2023-01-24T05:31:23;31.15;;;17.85;;
46765;SDS011;32527;51.986;5.842;2023-01-24T05:33:49;29.85;;;17.38;;
46765;SDS011;32527;51.986;5.842;2023-01-24T05:36:19;33.47;;;17.90;;
46765;SDS011;32527;51.986;5.842;2023-01-24T05:38:47;34.03;;;17.50;;
46765;SDS011;32527;51.986;5.842;2023-01-24T05:41:14;33.88;;;18.52;;
46765;SDS011;32527;51.986;5.842;2023-01-24T05:43:42;32.25;;;16.00;;
46765;SDS011;32527;51.986;5.842;2023-01-24T05:46:10;36.22;;;18.00;;
46765;SDS011;32527;51.986;5.842;2023-01-24T05:49:03;32.30;;;17.77;;
46765;SDS011;32527;51.986;5.842;2023-01-24T05:51:28;32.85;;;17.17;;
46765;SDS011;32527;51.986;5.842;2023-01-24T05:53:54;36.45;;;18.08;;
46765;SDS011;32527;51.986;5.842;2023-01-24T05:56:48;32.60;;;16.60;;
46765;SDS011;32527;51.986;5.842;2023-01-24T05:59:15;36.65;;;19.13;;
46765;SDS011;32527;51.986;5.842;2023-01-24T06:01:41;37.78;;;17.92;;
46765;SDS011;32527;51.986;5.842;2023-01-24T06:04:08;33.55;;;17.30;;
46765;SDS011;32527;51.986;5.842;2023-01-24T06:06:34;33.75;;;17.70;;
46765;SDS011;32527;51.986;5.842;2023-01-24T06:09:01;36.10;;;17.83;;
46765;SDS011;32527;51.986;5.842;2023-01-24T06:11:28;32.67;;;17.33;;
46765;SDS011;32527;51.986;5.842;2023-01-24T06:14:04;29.75;;;16.13;;
46765;SDS011;32527;51.986;5.842;2023-01-24T06:16:31;31.25;;;16.02;;
46765;SDS011;32527;51.986;5.842;2023-01-24T06:19:02;32.88;;;17.30;;
46765;SDS011;32527;51.986;5.842;2023-01-24T06:29:25;30.17;;;14.95;;
46765;SDS011;32527;51.986;5.842;2023-01-24T06:38:57;34.40;;;16.13;;
46765;SDS011;32527;51.986;5.842;2023-01-24T06:42:35;32.25;;;16.63;;
46765;SDS011;32527;51.986;5.842;2023-01-24T06:45:55;32.08;;;19.13;;
46765;SDS011;32527;51.986;5.842;2023-01-24T06:48:49;30.75;;;17.30;;
46765;SDS011;32527;51.986;5.842;2023-01-24T06:51:17;33.72;;;16.95;;
46765;SDS011;32527;51.986;5.842;2023-01-24T06:53:46;37.42;;;17.52;;
46765;SDS011;32527;51.986;5.842;2023-01-24T06:56:29;32.42;;;16.98;;
46765;SDS011;32527;51.986;5.842;2023-01-24T06:58:54;34.20;;;19.05;;
46765;SDS011;32527;51.986;5.842;2023-01-24T07:01:21;33.13;;;18.60;;
46765;SDS011;32527;51.986;5.842;2023-01-24T07:03:48;33.20;;;17.75;;
46765;SDS011;32527;51.986;5.842;2023-01-24T07:06:14;36.00;;;18.88;;
46765;SDS011;32527;51.986;5.842;2023-01-24T07:08:41;31.42;;;16.80;;
46765;SDS011;32527;51.986;5.842;2023-01-24T07:11:07;31.75;;;17.80;;
46765;SDS011;32527;51.986;5.842;2023-01-24T07:13:33;36.33;;;19.38;;
46765;SDS011;32527;51.986;5.842;2023-01-24T07:15:59;31.35;;;17.67;;
46765;SDS011;32527;51.986;5.842;2023-01-24T07:18:26;33.70;;;18.02;;
46765;SDS011;32527;51.986;5.842;2023-01-24T07:20:53;33.22;;;18.90;;
46765;SDS011;32527;51.986;5.842;2023-01-24T07:23:28;38.15;;;19.35;;
46765;SDS011;32527;51.986;5.842;2023-01-24T07:25:55;37.10;;;20.08;;
46765;SDS011;32527;51.986;5.842;2023-01-24T07:28:21;34.95;;;18.92;;
46765;SDS011;32527;51.986;5.842;2023-01-24T07:30:47;35.42;;;19.67;;
46765;SDS011;32527;51.986;5.842;2023-01-24T07:33:14;36.13;;;20.02;;
46765;SDS011;32527;51.986;5.842;2023-01-24T07:35:42;34.72;;;18.58;;
46765;SDS011;32527;51.986;5.842;2023-01-24T07:38:08;36.97;;;19.08;;
46765;SDS011;32527;51.986;5.842;2023-01-24T07:40:36;41.38;;;21.10;;
46765;SDS011;32527;51.986;5.842;2023-01-24T07:43:03;37.60;;;20.52;;
46765;SDS011;32527;51.986;5.842;2023-01-24T07:45:29;36.17;;;20.00;;
46765;SDS011;32527;51.986;5.842;2023-01-24T07:47:56;34.83;;;20.13;;
46765;SDS011;32527;51.986;5.842;2023-01-24T07:50:26;36.33;;;18.80;;
46765;SDS011;32527;51.986;5.842;2023-01-24T07:52:52;37.22;;;19.30;;
46765;SDS011;32527;51.986;5.842;2023-01-24T07:55:19;34.50;;;19.38;;
46765;SDS011;32527;51.986;5.842;2023-01-24T07:57:45;34.65;;;18.70;;
46765;SDS011;32527;51.986;5.842;2023-01-24T08:00:11;32.22;;;18.42;;
46765;SDS011;32527;51.986;5.842;2023-01-24T08:02:38;31.42;;;18.65;;
46765;SDS011;32527;51.986;5.842;2023-01-24T08:05:05;34.30;;;18.92;;
46765;SDS011;32527;51.986;5.842;2023-01-24T08:07:31;34.70;;;18.45;;
46765;SDS011;32527;51.986;5.842;2023-01-24T08:09:57;40.22;;;20.55;;
46765;SDS011;32527;51.986;5.842;2023-01-24T08:12:23;32.63;;;19.02;;
46765;SDS011;32527;51.986;5.842;2023-01-24T08:14:49;36.95;;;20.27;;
46765;SDS011;32527;51.986;5.842;2023-01-24T08:17:15;39.20;;;20.38;;
46765;SDS011;32527;51.986;5.842;2023-01-24T08:19:42;34.38;;;18.02;;
46765;SDS011;32527;51.986;5.842;2023-01-24T08:22:08;33.75;;;18.40;;
46765;SDS011;32527;51.986;5.842;2023-01-24T08:24:34;33.72;;;18.10;;
46765;SDS011;32527;51.986;5.842;2023-01-24T08:27:00;35.40;;;18.98;;
46765;SDS011;32527;51.986;5.842;2023-01-24T08:29:27;36.35;;;17.77;;
46765;SDS011;32527;51.986;5.842;2023-01-24T08:31:53;39.78;;;17.98;;
46765;SDS011;32527;51.986;5.842;2023-01-24T08:34:20;38.83;;;18.40;;
46765;SDS011;32527;51.986;5.842;2023-01-24T08:36:46;37.00;;;18.98;;
46765;SDS011;32527;51.986;5.842;2023-01-24T08:39:12;33.78;;;18.25;;
46765;SDS011;32527;51.986;5.842;2023-01-24T08:41:40;31.50;;;17.00;;
46765;SDS011;32527;51.986;5.842;2023-01-24T08:44:08;33.50;;;17.92;;
46765;SDS011;32527;51.986;5.842;2023-01-24T08:46:35;35.33;;;17.23;;
46765;SDS011;32527;51.986;5.842;2023-01-24T08:49:02;31.65;;;17.90;;
46765;SDS011;32527;51.986;5.842;2023-01-24T08:51:29;36.28;;;20.25;;
46765;SDS011;32527;51.986;5.842;2023-01-24T08:53:54;34.38;;;19.60;;
46765;SDS011;32527;51.986;5.842;2023-01-24T08:56:20;34.97;;;18.80;;
46765;SDS011;32527;51.986;5.842;2023-01-24T08:58:46;30.60;;;17.55;;
46765;SDS011;32527;51.986;5.842;2023-01-24T09:01:12;35.78;;;18.50;;
46765;SDS011;32527;51.986;5.842;2023-01-24T09:03:39;33.75;;;18.58;;
46765;SDS011;32527;51.986;5.842;2023-01-24T09:06:05;29.95;;;17.42;;
46765;SDS011;32527;51.986;5.842;2023-01-24T09:08:31;30.45;;;16.52;;
46765;SDS011;32527;51.986;5.842;2023-01-24T09:10:58;33.20;;;19.15;;
46765;SDS011;32527;51.986;5.842;2023-01-24T09:13:24;32.45;;;17.77;;
46765;SDS011;32527;51.986;5.842;2023-01-24T09:15:50;29.45;;;16.35;;
46765;SDS011;32527;51.986;5.842;2023-01-24T09:18:16;31.17;;;16.10;;
46765;SDS011;32527;51.986;5.842;2023-01-24T09:20:43;28.58;;;16.45;;
46765;SDS011;32527;51.986;5.842;2023-01-24T09:23:10;34.92;;;18.58;;
46765;SDS011;32527;51.986;5.842;2023-01-24T09:25:48;30.52;;;16.75;;
46765;SDS011;32527;51.986;5.842;2023-01-24T09:28:14;26.83;;;15.77;;
46765;SDS011;32527;51.986;5.842;2023-01-24T09:30:41;34.35;;;18.10;;
46765;SDS011;32527;51.986;5.842;2023-01-24T09:33:07;30.60;;;16.48;;
46765;SDS011;32527;51.986;5.842;2023-01-24T09:35:33;33.63;;;16.13;;
46765;SDS011;32527;51.986;5.842;2023-01-24T09:37:59;28.27;;;16.08;;
46765;SDS011;32527;51.986;5.842;2023-01-24T09:40:26;27.60;;;15.82;;
46765;SDS011;32527;51.986;5.842;2023-01-24T09:46:00;27.65;;;15.00;;
46765;SDS011;32527;51.986;5.842;2023-01-24T09:48:40;28.80;;;16.13;;
46765;SDS011;32527;51.986;5.842;2023-01-24T09:51:13;32.58;;;16.80;;
46765;SDS011;32527;51.986;5.842;2023-01-24T09:53:43;29.70;;;17.08;;
46765;SDS011;32527;51.986;5.842;2023-01-24T09:56:19;35.50;;;16.48;;
46765;SDS011;32527;51.986;5.842;2023-01-24T09:59:11;29.42;;;15.57;;
46765;SDS011;32527;51.986;5.842;2023-01-24T10:01:48;32.22;;;16.67;;
46765;SDS011;32527;51.986;5.842;2023-01-24T10:04:37;28.52;;;16.00;;
46765;SDS011;32527;51.986;5.842;2023-01-24T10:07:13;30.85;;;17.30;;
46765;SDS011;32527;51.986;5.842;2023-01-24T10:15:24;32.25;;;16.50;;
46765;SDS011;32527;51.986;5.842;2023-01-24T10:23:25;26.80;;;15.85;;
46765;SDS011;32527;51.986;5.842;2023-01-24T10:26:01;31.27;;;17.70;;
46765;SDS011;32527;51.986;5.842;2023-01-24T10:28:36;31.88;;;16.23;;
46765;SDS011;32527;51.986;5.842;2023-01-24T10:33:37;30.42;;;17.08;;
46765;SDS011;32527;51.986;5.842;2023-01-24T10:38:39;28.42;;;15.98;;
46765;SDS011;32527;51.986;5.842;2023-01-24T10:41:15;28.05;;;16.30;;
46765;SDS011;32527;51.986;5.842;2023-01-24T10:43:44;28.35;;;16.15;;
46765;SDS011;32527;51.986;5.842;2023-01-24T10:46:26;25.95;;;15.40;;
46765;SDS011;32527;51.986;5.842;2023-01-24T10:49:16;28.67;;;16.02;;
46765;SDS011;32527;51.986;5.842;2023-01-24T10:57:19;28.88;;;17.08;;
46765;SDS011;32527;51.986;5.842;2023-01-24T11:00:01;29.95;;;16.30;;
46765;SDS011;32527;51.986;5.842;2023-01-24T11:02:39;30.83;;;16.05;;
46765;SDS011;32527;51.986;5.842;2023-01-24T11:05:06;26.98;;;16.23;;
46765;SDS011;32527;51.986;5.842;2023-01-24T11:07:36;26.50;;;15.55;;
46765;SDS011;32527;51.986;5.842;2023-01-24T11:10:20;28.23;;;16.30;;
46765;SDS011;32527;51.986;5.842;2023-01-24T11:12:57;26.48;;;15.73;;
46765;SDS011;32527;51.986;5.842;2023-01-24T11:15:25;25.05;;;14.85;;
46765;SDS011;32527;51.986;5.842;2023-01-24T11:17:59;27.15;;;15.32;;
46765;SDS011;32527;51.986;5.842;2023-01-24T11:20:32;24.73;;;15.60;;
46765;SDS011;32527;51.986;5.842;2023-01-24T11:23:10;27.80;;;15.70;;
46765;SDS011;32527;51.986;5.842;2023-01-24T11:25:51;28.55;;;15.95;;
46765;SDS011;32527;51.986;5.842;2023-01-24T11:30:51;24.25;;;15.50;;
46765;SDS011;32527;51.986;5.842;2023-01-24T11:33:33;27.60;;;15.30;;
46765;SDS011;32527;51.986;5.842;2023-01-24T11:36:31;22.52;;;14.43;;
46765;SDS011;32527;51.986;5.842;2023-01-24T11:39:10;25.50;;;14.52;;
46765;SDS011;32527;51.986;5.842;2023-01-24T11:41:51;26.63;;;14.80;;
46765;SDS011;32527;51.986;5.842;2023-01-24T11:47:15;24.48;;;13.55;;
46765;SDS011;32527;51.986;5.842;2023-01-24T11:52:45;25.13;;;14.60;;
46765;SDS011;32527;51.986;5.842;2023-01-24T11:58:04;22.92;;;14.30;;
46765;SDS011;32527;51.986;5.842;2023-01-24T12:03:25;27.15;;;13.98;;
46765;SDS011;32527;51.986;5.842;2023-01-24T12:16:46;22.70;;;13.65;;
46765;SDS011;32527;51.986;5.842;2023-01-24T12:21:41;22.58;;;12.88;;
46765;SDS011;32527;51.986;5.842;2023-01-24T12:26:44;20.77;;;12.30;;
46765;SDS011;32527;51.986;5.842;2023-01-24T12:29:27;22.33;;;12.50;;
46765;SDS011;32527;51.986;5.842;2023-01-24T12:45:09;23.27;;;13.50;;
46765;SDS011;32527;51.986;5.842;2023-01-24T12:47:45;25.13;;;14.27;;
46765;SDS011;32527;51.986;5.842;2023-01-24T12:50:29;21.40;;;13.00;;
46765;SDS011;32527;51.986;5.842;2023-01-24T12:53:11;24.05;;;13.65;;
46765;SDS011;32527;51.986;5.842;2023-01-24T12:58:51;21.10;;;12.85;;
46765;SDS011;32527;51.986;5.842;2023-01-24T13:07:00;18.58;;;11.52;;
46765;SDS011;32527;51.986;5.842;2023-01-24T13:09:52;20.45;;;12.13;;
46765;SDS011;32527;51.986;5.842;2023-01-24T13:12:40;20.00;;;11.75;;
46765;SDS011;32527;51.986;5.842;2023-01-24T13:15:18;19.65;;;12.15;;
46765;SDS011;32527;51.986;5.842;2023-01-24T13:17:53;22.15;;;12.15;;
46765;SDS011;32527;51.986;5.842;2023-01-24T13:23:03;20.83;;;12.02;;
46765;SDS011;32527;51.986;5.842;2023-01-24T13:34:30;20.08;;;11.95;;
46765;SDS011;32527;51.986;5.842;2023-01-24T13:36:58;21.73;;;12.40;;
46765;SDS011;32527;51.986;5.842;2023-01-24T13:39:35;18.65;;;10.77;;
46765;SDS011;32527;51.986;5.842;2023-01-24T13:42:50;16.60;;;10.98;;
46765;SDS011;32527;51.986;5.842;2023-01-24T13:47:55;21.27;;;13.10;;
46765;SDS011;32527;51.986;5.842;2023-01-24T13:50:25;18.13;;;11.63;;
46765;SDS011;32527;51.986;5.842;2023-01-24T13:52:56;19.88;;;11.45;;
46765;SDS011;32527;51.986;5.842;2023-01-24T13:58:10;19.88;;;10.85;;
46765;SDS011;32527;51.986;5.842;2023-01-24T14:03:05;18.50;;;11.55;;
46765;SDS011;32527;51.986;5.842;2023-01-24T14:06:06;24.63;;;12.05;;
46765;SDS011;32527;51.986;5.842;2023-01-24T14:08:33;16.00;;;10.48;;
46765;SDS011;32527;51.986;5.842;2023-01-24T14:18:57;20.50;;;12.43;;
46765;SDS011;32527;51.986;5.842;2023-01-24T14:24:28;18.48;;;11.93;;
46765;SDS011;32527;51.986;5.842;2023-01-24T14:27:00;18.48;;;12.15;;
46765;SDS011;32527;51.986;5.842;2023-01-24T14:29:36;25.30;;;13.25;;
46765;SDS011;32527;51.986;5.842;2023-01-24T14:32:06;18.77;;;11.30;;
46765;SDS011;32527;51.986;5.842;2023-01-24T14:34:45;21.73;;;12.48;;
46765;SDS011;32527;51.986;5.842;2023-01-24T14:37:17;20.75;;;12.90;;
46765;SDS011;32527;51.986;5.842;2023-01-24T14:39:43;16.90;;;11.63;;
46765;SDS011;32527;51.986;5.842;2023-01-24T14:42:14;19.27;;;11.32;;
46765;SDS011;32527;51.986;5.842;2023-01-24T14:44:52;18.30;;;11.00;;
46765;SDS011;32527;51.986;5.842;2023-01-24T14:47:21;20.15;;;13.30;;
46765;SDS011;32527;51.986;5.842;2023-01-24T14:49:49;19.73;;;12.18;;
46765;SDS011;32527;51.986;5.842;2023-01-24T14:52:18;20.73;;;12.60;;
46765;SDS011;32527;51.986;5.842;2023-01-24T14:54:55;19.77;;;11.98;;
46765;SDS011;32527;51.986;5.842;2023-01-24T14:57:24;19.80;;;11.90;;
46765;SDS011;32527;51.986;5.842;2023-01-24T15:00:03;18.40;;;11.95;;
46765;SDS011;32527;51.986;5.842;2023-01-24T15:02:31;19.33;;;12.10;;
46765;SDS011;32527;51.986;5.842;2023-01-24T15:04:57;20.30;;;12.63;;
46765;SDS011;32527;51.986;5.842;2023-01-24T15:07:23;18.77;;;11.70;;
46765;SDS011;32527;51.986;5.842;2023-01-24T15:09:50;20.88;;;11.73;;
46765;SDS011;32527;51.986;5.842;2023-01-24T15:14:57;18.60;;;11.60;;
46765;SDS011;32527;51.986;5.842;2023-01-24T15:17:28;20.02;;;12.48;;
46765;SDS011;32527;51.986;5.842;2023-01-24T15:20:09;16.75;;;11.32;;
46765;SDS011;32527;51.986;5.842;2023-01-24T15:22:37;17.67;;;11.68;;
46765;SDS011;32527;51.986;5.842;2023-01-24T15:25:13;19.27;;;11.23;;
46765;SDS011;32527;51.986;5.842;2023-01-24T15:27:48;21.30;;;12.27;;
46765;SDS011;32527;51.986;5.842;2023-01-24T15:30:15;22.17;;;12.93;;
46765;SDS011;32527;51.986;5.842;2023-01-24T15:32:46;20.08;;;11.73;;
46765;SDS011;32527;51.986;5.842;2023-01-24T15:45:26;18.63;;;11.63;;
46765;SDS011;32527;51.986;5.842;2023-01-24T15:50:47;24.52;;;11.45;;
46765;SDS011;32527;51.986;5.842;2023-01-24T15:53:34;18.67;;;11.48;;
46765;SDS011;32527;51.986;5.842;2023-01-24T15:56:02;16.20;;;10.35;;
46765;SDS011;32527;51.986;5.842;2023-01-24T15:58:31;18.70;;;10.93;;
46765;SDS011;32527;51.986;5.842;2023-01-24T16:00:58;18.77;;;10.80;;
46765;SDS011;32527;51.986;5.842;2023-01-24T16:03:25;18.42;;;10.43;;
46765;SDS011;32527;51.986;5.842;2023-01-24T16:05:51;18.83;;;11.27;;
46765;SDS011;32527;51.986;5.842;2023-01-24T16:08:18;18.65;;;12.18;;
46765;SDS011;32527;51.986;5.842;2023-01-24T16:10:45;20.60;;;11.40;;
46765;SDS011;32527;51.986;5.842;2023-01-24T16:13:33;16.25;;;10.68;;
46765;SDS011;32527;51.986;5.842;2023-01-24T16:16:06;15.90;;;10.50;;
46765;SDS011;32527;51.986;5.842;2023-01-24T16:18:33;20.27;;;11.93;;
46765;SDS011;32527;51.986;5.842;2023-01-24T16:20:59;19.23;;;11.55;;
46765;SDS011;32527;51.986;5.842;2023-01-24T16:23:25;16.85;;;11.52;;
46765;SDS011;32527;51.986;5.842;2023-01-24T16:25:52;21.15;;;12.27;;
46765;SDS011;32527;51.986;5.842;2023-01-24T16:28:19;17.73;;;11.23;;
46765;SDS011;32527;51.986;5.842;2023-01-24T16:30:50;21.60;;;11.27;;
46765;SDS011;32527;51.986;5.842;2023-01-24T16:33:17;17.35;;;11.85;;
46765;SDS011;32527;51.986;5.842;2023-01-24T16:35:44;19.92;;;11.55;;
46765;SDS011;32527;51.986;5.842;2023-01-24T16:38:11;23.08;;;11.48;;
46765;SDS011;32527;51.986;5.842;2023-01-24T16:40:37;20.38;;;11.38;;
46765;SDS011;32527;51.986;5.842;2023-01-24T16:43:03;19.75;;;11.63;;
46765;SDS011;32527;51.986;5.842;2023-01-24T16:45:31;18.02;;;10.85;;
46765;SDS011;32527;51.986;5.842;2023-01-24T16:47:57;18.88;;;11.63;;
46765;SDS011;32527;51.986;5.842;2023-01-24T16:50:24;20.63;;;12.10;;
46765;SDS011;32527;51.986;5.842;2023-01-24T16:52:51;20.17;;;13.02;;
46765;SDS011;32527;51.986;5.842;2023-01-24T16:55:18;19.45;;;11.30;;
46765;SDS011;32527;51.986;5.842;2023-01-24T16:57:44;23.73;;;12.55;;
46765;SDS011;32527;51.986;5.842;2023-01-24T17:00:11;16.55;;;10.70;;
46765;SDS011;32527;51.986;5.842;2023-01-24T17:02:38;19.42;;;11.77;;
46765;SDS011;32527;51.986;5.842;2023-01-24T17:05:05;21.00;;;11.85;;
46765;SDS011;32527;51.986;5.842;2023-01-24T17:07:31;16.33;;;11.75;;
46765;SDS011;32527;51.986;5.842;2023-01-24T17:09:57;20.85;;;11.70;;
46765;SDS011;32527;51.986;5.842;2023-01-24T17:12:23;19.50;;;11.90;;